createdAt,value
2019-01-28T00:03:21.455Z,10.17
2019-01-28T00:08:43.634Z,12.37
2019-01-28T00:13:58.742Z,12.60
2019-01-28T00:19:20.926Z,17.53
2019-01-28T00:24:43.111Z,18.20
2019-01-28T00:29:45.789Z,20.20
2019-01-28T00:35:07.963Z,16.90
2019-01-28T00:40:30.153Z,15.60
2019-01-28T00:45:52.321Z,13.87
2019-01-28T00:51:14.506Z,23.13
2019-01-28T00:56:36.682Z,13.83
2019-01-28T01:01:39.365Z,19.27
2019-01-28T01:06:42.047Z,21.10
2019-01-28T01:11:57.039Z,17.87
2019-01-28T01:17:19.210Z,24.63
2019-01-28T01:22:41.385Z,18.17
2019-01-28T01:27:44.065Z,25.17
2019-01-28T01:33:06.233Z,17.20
2019-01-28T01:38:08.916Z,11.13
2019-01-28T01:43:31.099Z,14.33
2019-01-28T01:48:53.286Z,11.67
2019-01-28T01:53:55.949Z,12.17
2019-01-28T01:59:18.135Z,21.37
2019-01-28T02:04:40.309Z,16.50
2019-01-28T02:09:55.909Z,13.27
2019-01-28T02:21:08.366Z,12.00
2019-01-28T02:26:30.555Z,23.20
2019-01-28T02:31:52.772Z,15.53
2019-01-28T02:37:15.003Z,9.97
2019-01-28T02:42:17.685Z,7.57
2019-01-28T02:47:39.858Z,6.80
2019-01-28T02:53:02.034Z,7.13
2019-01-28T02:58:05.024Z,6.13
2019-01-28T03:03:27.211Z,5.10
2019-01-28T03:08:29.921Z,11.00
2019-01-28T03:13:45.196Z,6.47
2019-01-28T03:19:08.195Z,5.60
2019-01-28T03:24:23.525Z,7.23
2019-01-28T03:29:45.700Z,6.03
2019-01-28T03:34:48.369Z,7.87
2019-01-28T03:40:34.486Z,9.93
2019-01-28T03:45:56.664Z,6.00
2019-01-28T03:50:59.332Z,6.43
2019-01-28T03:56:21.495Z,7.00
2019-01-28T04:01:43.698Z,7.13
2019-01-28T04:07:05.896Z,7.20
2019-01-28T04:12:08.618Z,8.50
2019-01-28T04:17:30.800Z,5.93
2019-01-28T04:22:33.476Z,4.40
2019-01-28T04:27:55.656Z,6.07
2019-01-28T04:33:17.858Z,4.20
2019-01-28T04:38:40.025Z,4.30
2019-01-28T04:44:28.995Z,8.87
2019-01-28T04:49:51.161Z,5.40
2019-01-28T04:55:13.613Z,5.63
2019-01-28T05:00:22.394Z,9.53
2019-01-28T05:05:25.091Z,4.50
2019-01-28T05:10:27.800Z,3.80
2019-01-28T05:15:50.037Z,3.30
2019-01-28T05:21:12.219Z,3.53
2019-01-28T05:26:14.917Z,3.07
2019-01-28T05:31:37.106Z,2.90
2019-01-28T05:36:59.297Z,2.93
2019-01-28T05:42:21.481Z,3.00
2019-01-28T05:47:43.662Z,3.80
2019-01-28T05:52:47.705Z,2.87
2019-01-28T05:58:09.878Z,2.70
2019-01-28T06:03:32.071Z,2.27
2019-01-28T06:08:54.268Z,2.00
2019-01-28T06:13:56.945Z,2.10
2019-01-28T06:18:59.643Z,1.97
2019-01-28T06:24:21.831Z,2.90
2019-01-28T06:29:24.491Z,1.97
2019-01-28T06:40:10.984Z,2.23
2019-01-28T06:45:33.169Z,2.40
2019-01-28T06:50:55.342Z,3.17
2019-01-28T06:56:17.521Z,2.20
2019-01-28T07:01:20.200Z,2.93
2019-01-28T07:06:22.862Z,2.97
2019-01-28T07:11:38.587Z,2.10
2019-01-28T07:17:01.300Z,2.70
2019-01-28T07:22:23.540Z,2.87
2019-01-28T07:27:45.759Z,5.97
2019-01-28T07:33:07.918Z,2.80
2019-01-28T07:38:30.085Z,2.93
2019-01-28T07:43:52.677Z,4.43
2019-01-28T07:48:55.339Z,3.50
2019-01-28T07:54:17.522Z,5.77
2019-01-28T07:59:39.705Z,2.87
2019-01-28T08:05:01.984Z,3.43
2019-01-28T08:10:17.596Z,3.87
2019-01-28T08:15:39.783Z,4.70
2019-01-28T08:21:01.967Z,3.67
2019-01-28T08:26:24.147Z,3.70
2019-01-28T08:31:46.315Z,4.27
2019-01-28T08:37:08.485Z,3.13
2019-01-28T08:42:30.664Z,4.00
2019-01-28T08:47:52.863Z,3.97
2019-01-28T08:53:15.037Z,4.23
2019-01-28T08:58:37.225Z,3.33
2019-01-28T09:03:39.906Z,4.13
2019-01-28T09:09:23.510Z,5.80
2019-01-28T09:14:45.688Z,4.17
2019-01-28T09:20:11.355Z,4.13
2019-01-28T09:25:33.537Z,4.00
2019-01-28T09:30:55.824Z,4.27
2019-01-28T09:36:18.008Z,4.30
2019-01-28T09:41:40.189Z,3.70
2019-01-28T09:47:02.385Z,7.40
2019-01-28T09:52:06.381Z,4.27
2019-01-28T09:57:09.066Z,3.60
2019-01-28T10:02:11.746Z,4.30
2019-01-28T10:07:33.922Z,3.57
2019-01-28T10:12:49.701Z,3.20
2019-01-28T10:18:11.973Z,3.07
2019-01-28T10:23:34.143Z,2.93
2019-01-28T10:28:36.826Z,2.43
2019-01-28T10:33:59.053Z,3.40
2019-01-28T10:39:21.232Z,4.00
2019-01-28T10:44:23.897Z,3.03
2019-01-28T10:49:46.067Z,3.20
2019-01-28T10:55:08.540Z,4.43
2019-01-28T11:00:50.458Z,3.10
2019-01-28T11:06:12.618Z,3.30
2019-01-28T11:11:28.368Z,4.57
2019-01-28T11:16:50.550Z,8.37
2019-01-28T11:22:12.744Z,4.27
2019-01-28T11:27:35.081Z,3.13
2019-01-28T11:32:57.435Z,4.00
2019-01-28T11:38:20.645Z,3.70
2019-01-28T11:43:42.920Z,6.87
2019-01-28T11:49:05.911Z,9.20
2019-01-28T11:54:29.228Z,9.50
2019-01-28T11:59:51.419Z,6.07
2019-01-28T12:05:13.692Z,8.33
2019-01-28T12:10:16.396Z,10.60
2019-01-28T12:15:38.567Z,9.23
2019-01-28T12:21:00.765Z,8.10
2019-01-28T12:26:22.932Z,9.23
2019-01-28T12:31:45.299Z,8.30
2019-01-28T12:37:07.469Z,6.40
2019-01-28T12:42:10.136Z,8.03
2019-01-28T12:47:12.799Z,6.00
2019-01-28T12:52:15.497Z,6.53
2019-01-28T12:57:37.641Z,6.70
2019-01-28T13:02:59.814Z,5.77
2019-01-28T13:08:21.988Z,4.67
2019-01-28T13:13:41.182Z,4.70
2019-01-28T13:19:01.088Z,7.90
2019-01-28T13:24:23.318Z,8.73
2019-01-28T13:29:45.487Z,9.47
2019-01-28T13:34:48.160Z,10.93
2019-01-28T13:40:10.658Z,14.30
2019-01-28T13:45:56.216Z,19.53
2019-01-28T13:51:18.381Z,22.40
2019-01-28T13:56:40.538Z,19.50
2019-01-28T14:02:02.916Z,18.77
2019-01-28T14:07:25.096Z,26.17
2019-01-28T14:12:40.107Z,22.17
2019-01-28T14:17:42.920Z,25.10
2019-01-28T14:22:45.602Z,20.20
2019-01-28T14:28:09.152Z,20.37
2019-01-28T14:33:31.351Z,21.70
2019-01-28T14:38:53.665Z,18.73
2019-01-28T14:44:15.838Z,18.90
2019-01-28T14:49:38.025Z,23.43
2019-01-28T14:55:00.589Z,17.07
2019-01-28T15:00:05.123Z,15.67
2019-01-28T15:05:09.316Z,18.97
2019-01-28T15:10:24.836Z,20.40
2019-01-28T15:15:46.999Z,18.37
2019-01-28T15:21:09.176Z,14.57
2019-01-28T15:26:31.370Z,16.07
2019-01-28T15:31:34.113Z,14.40
2019-01-28T15:36:36.819Z,10.47
2019-01-28T15:41:58.986Z,7.60
2019-01-28T15:47:21.186Z,6.23
2019-01-28T15:52:43.378Z,1.10
2019-01-28T15:58:06.344Z,0.70
2019-01-28T16:03:28.735Z,0.70
2019-01-28T16:08:50.907Z,3.93
2019-01-28T16:14:06.053Z,1.00
2019-01-28T16:19:28.215Z,1.17
2019-01-28T16:24:50.395Z,1.70
2019-01-28T16:30:15.615Z,1.30
2019-01-28T16:35:37.791Z,1.50
2019-01-28T16:40:59.939Z,3.60
2019-01-28T16:46:22.112Z,1.73
2019-01-28T16:51:44.323Z,1.83
2019-01-28T16:57:07.003Z,3.37
2019-01-28T17:02:29.174Z,2.63
2019-01-28T17:07:31.982Z,2.60
2019-01-28T17:12:46.846Z,6.60
2019-01-28T17:18:09.021Z,3.33
2019-01-28T17:23:31.273Z,5.53
2019-01-28T17:28:53.461Z,3.00
2019-01-28T17:34:15.642Z,3.43
2019-01-28T17:39:37.807Z,3.73
2019-01-28T17:44:59.984Z,3.87
2019-01-28T17:50:24.562Z,3.03
2019-01-28T17:55:46.573Z,4.50
2019-01-28T18:01:09.078Z,3.03
2019-01-28T18:06:31.373Z,3.70
2019-01-28T18:11:46.839Z,4.20
2019-01-28T18:17:08.991Z,2.97
2019-01-28T18:22:11.696Z,3.27
2019-01-28T18:27:33.869Z,7.37
2019-01-28T18:32:36.597Z,4.13
2019-01-28T18:37:39.269Z,3.83
2019-01-28T18:43:01.443Z,4.17
2019-01-28T18:48:06.519Z,9.40
2019-01-28T18:53:09.183Z,7.10
2019-01-28T18:58:31.370Z,4.37
2019-01-28T19:03:53.543Z,6.57
2019-01-28T19:09:15.829Z,3.93
2019-01-28T19:14:50.255Z,4.10
2019-01-28T19:20:52.033Z,6.23
2019-01-28T19:26:14.350Z,6.40
2019-01-28T19:31:17.044Z,4.50
2019-01-28T19:36:19.886Z,6.03
2019-01-28T19:41:23.223Z,8.27
2019-01-28T19:46:26.212Z,7.67
2019-01-28T19:51:48.418Z,7.70
2019-01-28T19:56:51.202Z,4.50
2019-01-28T20:01:53.919Z,8.07
2019-01-28T20:07:16.318Z,4.03
2019-01-28T20:12:32.144Z,5.30
2019-01-28T20:17:54.389Z,4.60
2019-01-28T20:23:16.606Z,10.43
2019-01-28T20:28:38.992Z,4.97
2019-01-28T20:34:01.227Z,5.00
2019-01-28T20:39:23.431Z,6.63
2019-01-28T20:44:26.328Z,8.53
2019-01-28T20:49:48.543Z,6.57
2019-01-28T20:54:51.288Z,4.27
2019-01-28T20:59:53.985Z,4.50
2019-01-28T21:04:56.644Z,19.33
2019-01-28T21:10:12.246Z,5.30
2019-01-28T21:15:34.608Z,5.13
2019-01-28T21:20:56.806Z,3.73
2019-01-28T21:26:18.988Z,11.30
2019-01-28T21:31:41.164Z,12.33
2019-01-28T21:37:22.997Z,3.97
2019-01-28T21:42:45.172Z,10.90
2019-01-28T21:48:07.464Z,8.47
2019-01-28T21:53:10.144Z,4.30
2019-01-28T21:58:32.327Z,8.90
2019-01-28T22:03:54.525Z,5.73
2019-01-28T22:09:16.729Z,7.33
2019-01-28T22:14:38.919Z,22.23
2019-01-28T22:19:41.610Z,3.20
2019-01-28T22:25:05.322Z,3.27
2019-01-28T22:30:27.504Z,9.83
2019-01-28T22:35:49.680Z,15.83
2019-01-28T22:41:11.863Z,2.07
2019-01-28T22:52:08.001Z,12.70
2019-01-28T22:57:30.807Z,11.47
2019-01-28T23:02:52.986Z,6.67
2019-01-28T23:07:55.825Z,9.13
2019-01-28T23:12:58.490Z,9.13
2019-01-28T23:18:20.679Z,3.33
2019-01-28T23:23:42.853Z,3.20
2019-01-28T23:29:05.020Z,5.40
2019-01-28T23:34:07.691Z,2.97
2019-01-28T23:39:29.873Z,6.33
2019-01-28T23:44:52.049Z,12.73
2019-01-28T23:50:14.331Z,8.17
2019-01-28T23:55:36.528Z,7.20
